Time;durP1;ratioP1;P1;durP2;ratioP2;P2;SDS_P1;SDS_P2;PMS_P1;PMS_P2;Temp;Humidity;BMP_temperature;BMP_pressure;BME280_temperature;BME280_humidity;BME280_pressure;Samples;Min_cycle;Max_cycle;Signal;HPM_P1;HPM_P2
2021/06/24 00:01:49;;;;;;;1.45;1.30;;;20.60;56.20;;;;;;4940010;28;20039;-84
2021/06/24 00:04:15;;;;;;;1.40;1.17;;;20.60;56.20;;;;;;4954021;28;20105;-84
2021/06/24 00:06:40;;;;;;;1.40;1.00;;;20.60;56.20;;;;;;4933117;28;20073;-83
2021/06/24 00:09:07;;;;;;;2.50;1.50;;;20.60;56.20;;;;;;4938943;28;20079;-85
2021/06/24 00:11:33;;;;;;;2.20;1.42;;;20.50;56.20;;;;;;4939906;28;20039;-83
2021/06/24 00:13:59;;;;;;;2.35;1.33;;;20.50;56.20;;;;;;4954229;28;20034;-84
2021/06/24 00:16:25;;;;;;;1.63;1.35;;;20.50;56.30;;;;;;4943902;28;20383;-84
2021/06/24 00:18:51;;;;;;;1.52;1.30;;;20.50;56.30;;;;;;4972730;28;20031;-84
2021/06/24 00:21:17;;;;;;;1.90;1.30;;;20.50;56.30;;;;;;4934508;28;20023;-83
2021/06/24 00:23:43;;;;;;;2.75;1.45;;;20.50;56.40;;;;;;4938217;29;20036;-84
2021/06/24 00:26:09;;;;;;;2.58;1.38;;;20.40;56.30;;;;;;4918554;28;20027;-84
2021/06/24 00:28:34;;;;;;;3.33;1.35;;;20.40;56.30;;;;;;4928739;29;20114;-83
2021/06/24 00:31:02;;;;;;;1.52;1.42;;;20.50;56.40;;;;;;4947342;29;20039;-84
2021/06/24 00:33:27;;;;;;;2.25;1.30;;;20.40;56.40;;;;;;4952933;28;20035;-83
2021/06/24 00:35:54;;;;;;;1.90;1.38;;;20.40;56.40;;;;;;4919709;29;20041;-84
2021/06/24 00:38:19;;;;;;;2.25;1.30;;;20.40;56.40;;;;;;4971377;28;20117;-83
2021/06/24 00:40:46;;;;;;;1.63;1.20;;;20.40;56.50;;;;;;4927184;28;20110;-83
2021/06/24 00:43:18;;;;;;;1.80;1.20;;;20.40;56.50;;;;;;4947302;29;20115;-84
2021/06/24 00:45:46;;;;;;;1.63;1.20;;;20.40;56.50;;;;;;4938131;29;20485;-83
2021/06/24 00:48:13;;;;;;;1.70;1.30;;;20.30;56.50;;;;;;4956464;28;20086;-83
2021/06/24 00:50:42;;;;;;;2.28;1.50;;;20.30;56.50;;;;;;4975069;28;20118;-84
2021/06/24 00:53:08;;;;;;;1.95;1.45;;;20.30;56.60;;;;;;4937539;28;20037;-84
2021/06/24 00:55:43;;;;;;;1.60;1.20;;;20.20;56.60;;;;;;4976177;28;20388;-83
2021/06/24 00:58:29;;;;;;;2.42;1.63;;;20.30;56.60;;;;;;4943103;28;20093;-84
2021/06/24 01:00:59;;;;;;;1.98;1.20;;;20.20;56.70;;;;;;4937816;28;20165;-83
2021/06/24 01:03:26;;;;;;;1.95;1.30;;;20.20;56.60;;;;;;4968636;28;20031;-83
2021/06/24 01:05:53;;;;;;;1.50;1.13;;;20.20;56.60;;;;;;4944212;28;20480;-83
2021/06/24 01:08:28;;;;;;;2.60;1.33;;;20.20;56.70;;;;;;4935317;28;20031;-82
2021/06/24 01:10:58;;;;;;;1.30;1.20;;;20.10;56.70;;;;;;4930719;28;20031;-83
2021/06/24 01:13:25;;;;;;;2.38;1.40;;;20.20;56.70;;;;;;4963675;28;20066;-83
2021/06/24 01:15:52;;;;;;;2.10;1.40;;;20.10;56.70;;;;;;4934916;28;20038;-83
2021/06/24 01:18:18;;;;;;;2.22;1.40;;;20.10;56.70;;;;;;4955793;28;20019;-83
2021/06/24 01:20:44;;;;;;;2.47;1.30;;;20.10;56.70;;;;;;4950961;28;20034;-83
2021/06/24 01:23:13;;;;;;;1.92;1.50;;;20.10;56.80;;;;;;4945607;28;20030;-83
2021/06/24 01:25:39;;;;;;;2.28;1.45;;;20.10;56.80;;;;;;4969229;28;20027;-82
2021/06/24 01:28:07;;;;;;;1.70;1.20;;;20.10;56.80;;;;;;4942794;28;20065;-84
2021/06/24 01:30:35;;;;;;;1.85;1.35;;;20.00;56.80;;;;;;4959363;28;20031;-83
2021/06/24 01:33:04;;;;;;;2.33;1.23;;;20.10;56.90;;;;;;4925538;28;20031;-83
2021/06/24 01:35:30;;;;;;;2.45;1.30;;;20.00;56.90;;;;;;4974841;28;20046;-82
2021/06/24 01:38:01;;;;;;;2.72;1.45;;;20.00;56.90;;;;;;4937836;28;20038;-83
2021/06/24 01:40:28;;;;;;;1.85;1.40;;;20.00;56.90;;;;;;4965298;28;20023;-82
2021/06/24 01:42:54;;;;;;;3.13;1.60;;;20.00;57.00;;;;;;4957875;28;20034;-83
2021/06/24 01:45:21;;;;;;;1.83;1.30;;;20.00;56.90;;;;;;4934479;28;20070;-83
2021/06/24 01:47:48;;;;;;;1.45;1.35;;;20.00;57.00;;;;;;4941248;28;20121;-83
2021/06/24 01:50:15;;;;;;;3.60;1.65;;;20.00;57.00;;;;;;4944040;28;20031;-82
2021/06/24 01:52:46;;;;;;;2.03;1.38;;;19.90;57.00;;;;;;4940659;28;20030;-83
2021/06/24 01:55:15;;;;;;;2.03;1.40;;;19.90;57.00;;;;;;4976352;28;20163;-83
2021/06/24 01:58:09;;;;;;;1.75;1.30;;;19.90;57.00;;;;;;4955402;28;20126;-84
2021/06/24 02:01:10;;;;;;;1.40;1.30;;;19.80;57.00;;;;;;4868336;29;20041;-84
2021/06/24 02:03:45;;;;;;;1.73;1.42;;;19.90;57.10;;;;;;4919418;29;20051;-83
2021/06/24 02:06:11;;;;;;;2.03;1.55;;;19.80;57.10;;;;;;4951412;29;20071;-84
2021/06/24 02:08:39;;;;;;;2.53;1.50;;;19.80;57.10;;;;;;4938750;28;20078;-83
2021/06/24 02:11:18;;;;;;;1.33;1.20;;;19.80;57.20;;;;;;4937593;28;20117;-84
2021/06/24 02:13:47;;;;;;;1.90;1.60;;;19.70;57.20;;;;;;4928126;28;20043;-84
2021/06/24 02:16:13;;;;;;;2.25;1.40;;;19.80;57.20;;;;;;4922859;28;20035;-84
2021/06/24 02:18:39;;;;;;;2.85;1.60;;;19.70;57.20;;;;;;4939573;28;20023;-84
2021/06/24 02:21:11;;;;;;;2.15;1.30;;;19.80;57.30;;;;;;4952391;28;20062;-83
2021/06/24 02:23:47;;;;;;;1.92;1.42;;;19.70;57.20;;;;;;4975705;28;20102;-83
2021/06/24 02:26:23;;;;;;;2.25;1.42;;;19.70;57.20;;;;;;4951263;28;20023;-84
2021/06/24 02:28:57;;;;;;;1.63;1.42;;;19.70;57.30;;;;;;4956874;28;20035;-84
2021/06/24 02:31:31;;;;;;;1.48;1.30;;;19.70;57.30;;;;;;4957104;28;20121;-84
2021/06/24 02:34:04;;;;;;;2.25;1.58;;;19.70;57.30;;;;;;4958433;28;20030;-84
2021/06/24 02:36:40;;;;;;;1.58;1.30;;;19.70;57.40;;;;;;4939281;29;20436;-84
2021/06/24 02:39:07;;;;;;;2.55;1.50;;;19.60;57.30;;;;;;4952741;28;20035;-84
2021/06/24 02:41:35;;;;;;;1.80;1.50;;;19.60;57.30;;;;;;4948540;28;20052;-84
2021/06/24 02:44:04;;;;;;;1.98;1.35;;;19.60;57.40;;;;;;4956192;28;20114;-84
2021/06/24 02:46:30;;;;;;;2.35;1.80;;;19.60;57.40;;;;;;4944559;28;20032;-84
2021/06/24 02:48:56;;;;;;;2.03;1.40;;;19.60;57.40;;;;;;4933507;28;20035;-84
2021/06/24 02:51:40;;;;;;;1.63;1.43;;;19.60;57.40;;;;;;4940372;28;20070;-84
2021/06/24 02:54:14;;;;;;;3.03;1.70;;;19.60;57.40;;;;;;4975043;28;20042;-83
2021/06/24 02:56:42;;;;;;;1.63;1.35;;;19.60;57.50;;;;;;4954468;29;20082;-84
2021/06/24 02:59:28;;;;;;;1.55;1.38;;;19.50;57.40;;;;;;4955691;28;20518;-84
2021/06/24 03:01:54;;;;;;;1.70;1.40;;;19.50;57.40;;;;;;4910411;28;20126;-83
2021/06/24 03:04:27;;;;;;;1.50;1.40;;;19.50;57.50;;;;;;4933171;28;20070;-84
2021/06/24 03:06:54;;;;;;;2.47;1.50;;;19.50;57.50;;;;;;4925719;28;20476;-84
2021/06/24 03:09:24;;;;;;;1.98;1.52;;;19.50;57.50;;;;;;4957110;28;20039;-84
2021/06/24 03:11:50;;;;;;;2.35;1.40;;;19.50;57.50;;;;;;4938433;29;20027;-84
2021/06/24 03:14:17;;;;;;;1.77;1.52;;;19.50;57.50;;;;;;4949897;28;20035;-83
2021/06/24 03:16:44;;;;;;;1.83;1.60;;;19.50;57.60;;;;;;4924402;28;20511;-84
2021/06/24 03:19:18;;;;;;;1.80;1.45;;;19.50;57.60;;;;;;4950039;28;20082;-84
2021/06/24 03:21:54;;;;;;;1.80;1.60;;;19.40;57.60;;;;;;4971684;28;20031;-83
2021/06/24 03:24:22;;;;;;;1.50;1.40;;;19.40;57.60;;;;;;4957550;28;20102;-84
2021/06/24 03:26:49;;;;;;;2.10;1.80;;;19.40;57.60;;;;;;4938967;28;20031;-83
2021/06/24 03:29:16;;;;;;;2.58;1.38;;;19.40;57.60;;;;;;4954104;28;20025;-84
2021/06/24 03:31:46;;;;;;;2.20;1.63;;;19.40;57.70;;;;;;4941468;28;20038;-83
2021/06/24 03:34:14;;;;;;;2.35;1.60;;;19.40;57.70;;;;;;4957270;28;20034;-84
2021/06/24 03:36:42;;;;;;;1.65;1.48;;;19.40;57.70;;;;;;4938753;28;20027;-83
2021/06/24 03:39:08;;;;;;;2.35;1.58;;;19.40;57.70;;;;;;4940895;28;20038;-83
2021/06/24 03:41:37;;;;;;;2.33;1.65;;;19.40;57.80;;;;;;4941528;28;20062;-83
2021/06/24 03:44:05;;;;;;;1.73;1.58;;;19.30;57.80;;;;;;4927558;28;20054;-83
2021/06/24 03:46:32;;;;;;;1.52;1.42;;;19.30;57.80;;;;;;4929283;28;20118;-83
2021/06/24 03:48:59;;;;;;;1.88;1.40;;;19.30;57.80;;;;;;4925229;28;20035;-84
2021/06/24 03:51:24;;;;;;;2.05;1.67;;;19.30;57.80;;;;;;4934605;28;20056;-83
2021/06/24 03:53:58;;;;;;;2.57;1.60;;;19.30;57.80;;;;;;4936679;28;20036;-83
2021/06/24 03:56:26;;;;;;;3.13;1.50;;;19.30;57.90;;;;;;4925749;28;20035;-83
2021/06/24 03:58:58;;;;;;;2.35;1.67;;;19.30;57.80;;;;;;4938695;28;20479;-83
2021/06/24 04:01:24;;;;;;;1.63;1.50;;;19.30;57.90;;;;;;4960698;28;20392;-86
2021/06/24 04:03:51;;;;;;;1.67;1.42;;;19.20;57.90;;;;;;4960658;28;20465;-82
2021/06/24 04:06:24;;;;;;;1.45;1.35;;;19.20;58.00;;;;;;4930428;28;20035;-82
2021/06/24 04:08:53;;;;;;;3.00;1.90;;;19.20;57.90;;;;;;4956042;29;20034;-82
2021/06/24 04:11:23;;;;;;;2.67;1.55;;;19.20;58.00;;;;;;4964960;28;20547;-85
2021/06/24 04:13:56;;;;;;;2.03;1.70;;;19.20;58.00;;;;;;4959615;28;20058;-80
2021/06/24 04:16:42;;;;;;;1.92;1.55;;;19.20;58.10;;;;;;4957411;28;20472;-80
2021/06/24 04:19:10;;;;;;;1.88;1.30;;;19.20;58.10;;;;;;4948830;28;20074;-82
2021/06/24 04:21:37;;;;;;;2.90;1.90;;;19.20;58.10;;;;;;4955127;28;20035;-81
2021/06/24 04:24:03;;;;;;;2.22;1.73;;;19.10;58.00;;;;;;4916838;28;20079;-81
2021/06/24 04:26:29;;;;;;;3.25;1.80;;;19.20;58.10;;;;;;4928464;28;20042;-80
2021/06/24 04:28:55;;;;;;;2.22;1.58;;;19.10;58.10;;;;;;4986722;28;20097;-81
2021/06/24 04:31:21;;;;;;;2.42;1.90;;;19.10;58.10;;;;;;4940035;29;20038;-80
2021/06/24 04:33:47;;;;;;;2.95;1.50;;;19.10;58.10;;;;;;4966416;28;20031;-81
2021/06/24 04:36:48;;;;;;;1.38;1.27;;;19.10;58.20;;;;;;4890520;29;20029;-81
2021/06/24 04:39:22;;;;;;;2.35;1.63;;;19.10;58.20;;;;;;4938808;28;20049;-80
2021/06/24 04:41:49;;;;;;;2.65;1.60;;;19.00;58.20;;;;;;4956447;28;20051;-82
2021/06/24 04:44:14;;;;;;;2.78;1.52;;;19.10;58.30;;;;;;4937979;28;20431;-82
2021/06/24 04:46:43;;;;;;;2.78;1.60;;;19.00;58.20;;;;;;4925303;28;20042;-82
2021/06/24 04:49:09;;;;;;;1.60;1.50;;;19.00;58.30;;;;;;4939312;28;20038;-82
2021/06/24 04:51:53;;;;;;;2.22;1.55;;;19.00;58.30;;;;;;4959902;28;20515;-83
2021/06/24 04:54:27;;;;;;;1.85;1.30;;;19.00;58.30;;;;;;4947271;28;20066;-82
2021/06/24 04:56:53;;;;;;;1.52;1.30;;;19.00;58.30;;;;;;4946335;29;20090;-84
2021/06/24 04:59:30;;;;;;;2.65;1.50;;;19.00;58.40;;;;;;4953424;28;20113;-82
2021/06/24 05:02:17;;;;;;;2.43;1.70;;;19.00;58.40;;;;;;4948215;28;20066;-80
2021/06/24 05:05:06;;;;;;;2.58;1.60;;;19.00;58.40;;;;;;4961980;28;20278;-88
2021/06/24 05:07:31;;;;;;;1.52;1.40;;;19.00;58.40;;;;;;4966181;28;20027;-81
2021/06/24 05:09:57;;;;;;;2.22;1.60;;;19.00;58.40;;;;;;4932425;28;20490;-79
2021/06/24 05:12:23;;;;;;;2.08;1.50;;;19.00;58.50;;;;;;4961633;28;20027;-84
2021/06/24 05:14:49;;;;;;;1.92;1.50;;;19.00;58.50;;;;;;4927957;28;20019;-82
2021/06/24 05:17:15;;;;;;;2.67;1.77;;;19.00;58.50;;;;;;4955196;28;20041;-84
2021/06/24 05:19:42;;;;;;;2.05;1.52;;;19.00;58.50;;;;;;4955888;28;20035;-85
2021/06/24 05:22:10;;;;;;;2.60;1.52;;;19.00;58.60;;;;;;4963963;28;20030;-83
2021/06/24 05:24:36;;;;;;;2.38;1.60;;;19.00;58.60;;;;;;4951515;29;20468;-83
2021/06/24 05:27:02;;;;;;;1.75;1.50;;;19.00;58.60;;;;;;4961493;28;20022;-82
2021/06/24 05:29:27;;;;;;;1.73;1.50;;;19.00;58.70;;;;;;4945710;28;20046;-83
2021/06/24 05:31:53;;;;;;;2.78;1.70;;;19.00;58.70;;;;;;4958496;28;20066;-83
2021/06/24 05:34:19;;;;;;;1.73;1.60;;;19.00;58.70;;;;;;4974050;28;20039;-83
2021/06/24 05:36:45;;;;;;;2.40;1.73;;;19.00;58.70;;;;;;4939731;28;20042;-82
2021/06/24 05:39:10;;;;;;;2.63;1.48;;;19.00;58.70;;;;;;4942597;28;20039;-82
2021/06/24 05:41:36;;;;;;;2.22;1.73;;;19.00;58.70;;;;;;4926418;28;20051;-82
2021/06/24 05:44:02;;;;;;;2.10;1.70;;;19.00;58.80;;;;;;4960802;28;20034;-82
2021/06/24 05:46:28;;;;;;;2.50;1.63;;;19.00;58.80;;;;;;4944858;28;20038;-82
2021/06/24 05:48:55;;;;;;;2.13;1.52;;;19.00;58.80;;;;;;4955567;28;20039;-82
2021/06/24 05:51:24;;;;;;;2.80;1.80;;;19.00;58.90;;;;;;4956070;28;20117;-81
2021/06/24 05:53:52;;;;;;;2.47;1.55;;;19.00;58.90;;;;;;4992485;28;20475;-82
2021/06/24 05:56:20;;;;;;;1.92;1.50;;;19.00;58.90;;;;;;4942110;28;20427;-82
2021/06/24 05:58:46;;;;;;;2.25;1.70;;;19.00;58.90;;;;;;4958210;28;20039;-84
2021/06/24 06:01:14;;;;;;;2.65;1.70;;;19.00;58.90;;;;;;4958320;28;20037;-83
2021/06/24 06:03:40;;;;;;;2.58;1.60;;;19.00;59.00;;;;;;4955459;28;20059;-82
2021/06/24 06:06:06;;;;;;;2.15;1.70;;;19.00;58.90;;;;;;4938048;29;20051;-82
2021/06/24 06:08:31;;;;;;;2.05;1.60;;;19.00;59.00;;;;;;4973993;28;20063;-82
2021/06/24 06:10:57;;;;;;;3.53;1.85;;;19.00;59.00;;;;;;4958012;28;20043;-82
2021/06/24 06:13:23;;;;;;;2.75;1.70;;;19.00;59.00;;;;;;4987415;28;20038;-81
2021/06/24 06:15:49;;;;;;;1.92;1.40;;;19.10;59.10;;;;;;4941588;28;20384;-83
2021/06/24 06:18:17;;;;;;;2.58;1.80;;;19.10;59.10;;;;;;4963211;28;20131;-81
2021/06/24 06:20:45;;;;;;;2.30;1.70;;;19.00;59.10;;;;;;4957089;28;20042;-81
2021/06/24 06:23:12;;;;;;;1.65;1.40;;;19.10;59.10;;;;;;4925276;28;20538;-82
2021/06/24 06:25:38;;;;;;;1.98;1.60;;;19.00;59.10;;;;;;4948201;28;20120;-82
2021/06/24 06:28:05;;;;;;;3.50;2.03;;;19.10;59.10;;;;;;4963901;28;20111;-81
2021/06/24 06:30:30;;;;;;;2.15;1.60;;;19.10;59.10;;;;;;4957061;28;20451;-81
2021/06/24 06:32:56;;;;;;;2.53;1.80;;;19.10;59.10;;;;;;4981892;28;20031;-81
2021/06/24 06:35:22;;;;;;;1.92;1.63;;;19.10;59.10;;;;;;4944121;28;20110;-81
2021/06/24 06:37:48;;;;;;;2.38;1.77;;;19.10;59.10;;;;;;4935390;28;20031;-82
2021/06/24 06:40:14;;;;;;;3.88;1.70;;;19.10;59.10;;;;;;4927744;28;20475;-82
2021/06/24 06:42:41;;;;;;;2.08;1.70;;;19.20;59.20;;;;;;4960216;28;20129;-82
2021/06/24 06:45:07;;;;;;;2.50;1.70;;;19.10;59.10;;;;;;4974872;28;20109;-81
2021/06/24 06:47:33;;;;;;;2.20;1.60;;;19.10;59.10;;;;;;4975749;28;20041;-81
2021/06/24 06:49:59;;;;;;;2.17;1.58;;;19.20;59.20;;;;;;4981307;28;20394;-82
2021/06/24 06:52:25;;;;;;;2.88;1.90;;;19.20;59.20;;;;;;4957330;28;20806;-82
2021/06/24 06:54:51;;;;;;;2.33;1.70;;;19.20;59.20;;;;;;4974609;28;20061;-81
2021/06/24 06:57:17;;;;;;;2.60;1.80;;;19.20;59.20;;;;;;4955291;28;20039;-83
2021/06/24 06:59:42;;;;;;;2.45;1.80;;;19.20;59.20;;;;;;4956953;28;20050;-82
2021/06/24 07:02:09;;;;;;;2.78;1.95;;;19.20;59.20;;;;;;4972657;28;20031;-81
2021/06/24 07:04:35;;;;;;;2.88;1.92;;;19.30;59.20;;;;;;4944292;28;20124;-82
2021/06/24 07:07:01;;;;;;;2.63;1.77;;;19.20;59.20;;;;;;4961486;28;20040;-82
2021/06/24 07:09:28;;;;;;;2.13;1.75;;;19.30;59.20;;;;;;4960215;28;20046;-82
2021/06/24 07:11:54;;;;;;;2.70;1.63;;;19.30;59.80;;;;;;4960154;28;20022;-82
2021/06/24 07:14:21;;;;;;;2.10;1.73;;;19.30;59.20;;;;;;4976097;28;20505;-82
2021/06/24 07:16:47;;;;;;;2.17;1.60;;;19.30;59.20;;;;;;4958250;28;20027;-81
2021/06/24 07:19:13;;;;;;;2.55;1.63;;;19.40;59.20;;;;;;4966722;28;20042;-81
2021/06/24 07:21:39;;;;;;;1.95;1.65;;;19.40;59.20;;;;;;4976124;28;20022;-83
2021/06/24 07:24:06;;;;;;;2.97;2.10;;;19.40;59.20;;;;;;4944193;28;20030;-82
2021/06/24 07:26:32;;;;;;;2.85;2.03;;;19.40;59.10;;;;;;4961300;28;20026;-82
2021/06/24 07:28:58;;;;;;;3.35;1.80;;;19.40;59.10;;;;;;4962652;28;20547;-83
2021/06/24 07:31:23;;;;;;;2.05;1.50;;;19.50;59.10;;;;;;4975930;28;20038;-84
2021/06/24 07:33:49;;;;;;;3.25;1.60;;;19.50;59.10;;;;;;4938993;29;20090;-84
2021/06/24 07:36:15;;;;;;;2.10;1.45;;;19.50;59.00;;;;;;4940615;28;20031;-83
2021/06/24 07:38:41;;;;;;;2.50;1.73;;;19.50;59.00;;;;;;4973948;28;20045;-83
2021/06/24 07:41:07;;;;;;;2.97;1.70;;;19.60;59.10;;;;;;4964064;28;20048;-82
2021/06/24 07:43:33;;;;;;;2.08;1.63;;;19.60;59.00;;;;;;4965221;28;20042;-83
2021/06/24 07:45:59;;;;;;;2.80;1.58;;;19.60;59.00;;;;;;4954272;28;20126;-83
2021/06/24 07:48:24;;;;;;;2.47;1.95;;;19.60;58.90;;;;;;4972500;28;20086;-85
2021/06/24 07:50:50;;;;;;;2.92;1.52;;;19.60;58.90;;;;;;4953698;28;20122;-83
2021/06/24 07:53:16;;;;;;;2.47;1.50;;;19.70;58.90;;;;;;4972694;28;20027;-83
2021/06/24 07:55:42;;;;;;;2.20;1.50;;;19.70;58.90;;;;;;4959362;28;20079;-84
2021/06/24 07:58:09;;;;;;;2.03;1.50;;;19.70;58.80;;;;;;4967719;28;20043;-84
2021/06/24 08:00:36;;;;;;;2.17;1.60;;;19.70;58.80;;;;;;4925056;28;20094;-84
2021/06/24 08:03:04;;;;;;;2.90;1.88;;;19.80;58.80;;;;;;4944097;28;20027;-83
2021/06/24 08:05:30;;;;;;;2.35;1.60;;;19.80;58.80;;;;;;4975582;28;20057;-84
2021/06/24 08:07:56;;;;;;;3.22;1.90;;;19.80;58.80;;;;;;4937729;29;20425;-85
2021/06/24 08:10:22;;;;;;;1.90;1.40;;;19.80;58.80;;;;;;4964461;28;20057;-84
2021/06/24 08:12:48;;;;;;;2.53;1.88;;;19.90;58.70;;;;;;4986883;28;20029;-84
2021/06/24 08:15:16;;;;;;;2.33;1.77;;;19.90;58.70;;;;;;4959477;28;20534;-83
2021/06/24 08:17:45;;;;;;;2.08;1.60;;;20.00;58.70;;;;;;4976048;28;20041;-84
2021/06/24 08:20:11;;;;;;;2.60;1.60;;;20.00;58.60;;;;;;4974708;28;20027;-85
2021/06/24 08:22:37;;;;;;;2.28;1.60;;;20.00;58.60;;;;;;4928009;28;20023;-83
2021/06/24 08:25:05;;;;;;;2.78;1.55;;;20.00;58.50;;;;;;4973262;28;20085;-83
2021/06/24 08:27:31;;;;;;;2.25;1.48;;;20.00;58.50;;;;;;4958515;28;20034;-82
2021/06/24 08:29:57;;;;;;;1.95;1.60;;;20.10;58.50;;;;;;4975604;28;20038;-84
2021/06/24 08:32:23;;;;;;;2.78;1.60;;;20.10;58.60;;;;;;4959499;28;20026;-83
2021/06/24 08:34:50;;;;;;;1.85;1.40;;;20.10;58.50;;;;;;4944196;29;20110;-84
2021/06/24 08:37:16;;;;;;;1.83;1.48;;;20.10;58.50;;;;;;4935981;29;20019;-82
2021/06/24 08:39:43;;;;;;;2.72;1.55;;;20.10;58.40;;;;;;4924617;28;20030;-82
2021/06/24 08:42:09;;;;;;;1.83;1.40;;;20.20;58.40;;;;;;4942148;28;20105;-82
2021/06/24 08:44:35;;;;;;;2.58;1.55;;;20.20;58.40;;;;;;4959826;28;20476;-82
2021/06/24 08:47:02;;;;;;;2.95;1.55;;;20.30;58.40;;;;;;4978592;28;20125;-82
2021/06/24 08:49:28;;;;;;;2.33;1.52;;;20.30;58.40;;;;;;4979069;28;20042;-83
2021/06/24 08:51:56;;;;;;;2.30;1.52;;;20.30;58.40;;;;;;4962805;28;20459;-82
2021/06/24 08:54:23;;;;;;;1.92;1.60;;;20.30;58.40;;;;;;4972243;28;20060;-83
2021/06/24 08:56:49;;;;;;;2.55;1.70;;;20.30;58.30;;;;;;4927437;28;20054;-83
2021/06/24 08:59:15;;;;;;;2.38;1.60;;;20.40;58.40;;;;;;4976599;28;20031;-81
2021/06/24 09:02:00;;;;;;;2.33;1.50;;;20.40;58.30;;;;;;4962423;28;20026;-83
2021/06/24 09:04:28;;;;;;;1.65;1.55;;;20.40;58.40;;;;;;4962387;28;20076;-83
2021/06/24 09:07:08;;;;;;;1.65;1.52;;;20.40;58.30;;;;;;4985154;28;20033;-83
2021/06/24 09:09:36;;;;;;;1.83;1.60;;;20.40;58.40;;;;;;4993318;28;20046;-82
2021/06/24 09:12:03;;;;;;;1.88;1.48;;;20.50;58.30;;;;;;4962870;28;20461;-83
2021/06/24 09:14:44;;;;;;;1.67;1.58;;;20.50;58.30;;;;;;4982302;28;20023;-83
2021/06/24 09:17:13;;;;;;;2.20;1.58;;;20.50;58.40;;;;;;4966403;28;20030;-82
2021/06/24 09:19:42;;;;;;;1.77;1.50;;;20.50;58.20;;;;;;4978177;28;20015;-83
2021/06/24 09:22:12;;;;;;;2.22;1.42;;;20.60;58.30;;;;;;4994182;28;20022;-81
2021/06/24 09:24:46;;;;;;;1.88;1.63;;;20.60;58.30;;;;;;4978138;28;20053;-81
2021/06/24 09:27:18;;;;;;;2.13;1.70;;;20.60;58.30;;;;;;4995517;28;20015;-82
2021/06/24 09:29:59;;;;;;;2.00;1.80;;;20.60;58.20;;;;;;4994316;28;20062;-82
2021/06/24 09:32:43;;;;;;;1.77;1.52;;;20.60;58.30;;;;;;4961709;28;20420;-82
2021/06/24 09:35:21;;;;;;;2.70;1.60;;;20.60;58.20;;;;;;4958317;28;20031;-81
2021/06/24 09:38:07;;;;;;;2.08;1.63;;;20.70;58.30;;;;;;4958526;28;20353;-81
2021/06/24 09:40:49;;;;;;;1.95;1.50;;;20.70;58.30;;;;;;4927119;28;20472;-81
2021/06/24 09:43:28;;;;;;;2.83;1.65;;;20.70;58.30;;;;;;4974284;28;20051;-81
2021/06/24 09:46:07;;;;;;;2.00;1.60;;;20.70;58.10;;;;;;4961180;28;20093;-81
2021/06/24 09:48:51;;;;;;;2.28;1.70;;;20.80;58.30;;;;;;4986625;28;20085;-81
2021/06/24 09:51:27;;;;;;;2.28;1.60;;;20.80;58.30;;;;;;4995085;28;20085;-81
2021/06/24 09:54:13;;;;;;;3.15;1.83;;;20.80;58.10;;;;;;4993576;28;20101;-82
2021/06/24 09:56:51;;;;;;;3.28;1.65;;;20.80;58.20;;;;;;4960156;28;20492;-82
2021/06/24 09:59:18;;;;;;;1.52;1.38;;;20.80;58.10;;;;;;4977061;28;20031;-82
2021/06/24 10:01:48;;;;;;;2.65;1.60;;;20.90;58.10;;;;;;4958184;28;20031;-82
2021/06/24 10:04:28;;;;;;;2.13;1.55;;;20.90;58.10;;;;;;4974027;28;20063;-81
2021/06/24 10:06:56;;;;;;;1.95;1.60;;;20.90;58.20;;;;;;4975292;28;20106;-81
2021/06/24 10:09:24;;;;;;;2.95;1.80;;;20.90;58.10;;;;;;4957266;28;20063;-81
2021/06/24 10:11:50;;;;;;;3.03;1.77;;;20.90;58.00;;;;;;4974612;28;20031;-81
2021/06/24 10:14:18;;;;;;;2.38;1.70;;;20.90;58.00;;;;;;4954524;29;20031;-80
2021/06/24 10:16:47;;;;;;;2.58;1.67;;;21.00;58.70;;;;;;4972752;28;20031;-82
2021/06/24 10:19:15;;;;;;;1.83;1.70;;;21.00;58.00;;;;;;4960728;28;20065;-81
2021/06/24 10:21:42;;;;;;;2.83;2.00;;;21.00;58.00;;;;;;4974015;28;20034;-82
2021/06/24 10:24:14;;;;;;;1.77;1.65;;;21.00;58.00;;;;;;4960807;28;20053;-82
2021/06/24 10:26:44;;;;;;;1.58;1.48;;;21.00;57.90;;;;;;4976417;28;20026;-81
2021/06/24 10:29:13;;;;;;;2.13;1.80;;;21.00;57.90;;;;;;4992873;28;20124;-82
2021/06/24 10:31:43;;;;;;;4.07;1.80;;;21.00;57.90;;;;;;4993593;28;20069;-80
2021/06/24 10:34:11;;;;;;;4.22;1.80;;;21.10;57.90;;;;;;4976832;28;20547;-81
2021/06/24 10:36:37;;;;;;;2.35;1.75;;;21.10;57.90;;;;;;4976420;28;20366;-80
2021/06/24 10:39:03;;;;;;;1.80;1.67;;;21.10;57.80;;;;;;4986952;28;20027;-82
2021/06/24 10:42:01;;;;;;;2.38;2.00;;;21.10;57.80;;;;;;4956931;28;20424;-80
2021/06/24 10:44:42;;;;;;;2.85;1.63;;;21.10;58.00;;;;;;4962678;28;20038;-81
2021/06/24 10:47:09;;;;;;;2.15;1.40;;;21.10;57.80;;;;;;4956813;28;20027;-81
2021/06/24 10:49:35;;;;;;;3.30;1.60;;;21.10;57.80;;;;;;4937675;29;20447;-81
2021/06/24 10:52:27;;;;;;;2.50;2.05;;;21.10;57.80;;;;;;4951773;28;20035;-80
2021/06/24 10:54:57;;;;;;;2.05;1.83;;;21.20;57.90;;;;;;4974341;28;20023;-81
2021/06/24 10:57:34;;;;;;;2.53;2.00;;;21.20;57.80;;;;;;4959939;28;20034;-80
2021/06/24 11:00:35;;;;;;;3.30;1.77;;;21.20;57.90;;;;;;4992372;28;20030;-82
2021/06/24 11:03:12;;;;;;;2.22;1.77;;;21.20;57.90;;;;;;4969028;28;20031;-81
2021/06/24 11:05:43;;;;;;;2.85;1.98;;;21.20;57.70;;;;;;4956178;28;20035;-81
2021/06/24 11:08:10;;;;;;;2.47;1.90;;;21.30;57.80;;;;;;4956422;28;20031;-81
2021/06/24 11:10:51;;;;;;;2.65;1.83;;;21.20;57.80;;;;;;4940606;28;20404;-84
2021/06/24 11:13:38;;;;;;;3.22;2.00;;;21.20;57.90;;;;;;4988296;28;20018;-81
2021/06/24 11:16:15;;;;;;;3.10;1.98;;;21.30;57.90;;;;;;4954102;28;20388;-82
2021/06/24 11:18:41;;;;;;;2.42;1.92;;;21.30;57.80;;;;;;4950733;29;20054;-82
2021/06/24 11:21:12;;;;;;;2.28;2.08;;;21.30;57.80;;;;;;4953332;29;20110;-82
2021/06/24 11:23:41;;;;;;;3.53;1.90;;;21.30;57.80;;;;;;4971146;28;20027;-82
2021/06/24 11:26:12;;;;;;;2.92;1.70;;;21.30;57.70;;;;;;4972888;28;20106;-82
2021/06/24 11:28:51;;;;;;;2.55;1.90;;;21.30;57.70;;;;;;4958648;28;20030;-82
2021/06/24 11:31:21;;;;;;;3.03;2.00;;;21.30;57.70;;;;;;4961194;28;20034;-82
2021/06/24 11:34:18;;;;;;;2.22;1.73;;;21.30;57.70;;;;;;4974298;28;20117;-83
2021/06/24 11:36:55;;;;;;;2.95;1.90;;;21.30;57.70;;;;;;4975031;28;20089;-82
2021/06/24 11:39:24;;;;;;;2.50;1.90;;;21.40;57.70;;;;;;4975924;28;20545;-82
2021/06/24 11:41:55;;;;;;;2.60;2.13;;;21.40;57.70;;;;;;4990551;28;20117;-82
2021/06/24 11:44:27;;;;;;;2.50;1.83;;;21.40;57.80;;;;;;4973520;28;20019;-83
2021/06/24 11:47:00;;;;;;;2.83;2.00;;;21.40;57.70;;;;;;4959234;28;20038;-82
2021/06/24 12:00:56;;;;;;;2.40;1.93;;;21.50;57.70;;;;;;4955679;28;20033;-82
2021/06/24 12:03:22;;;;;;;2.78;1.95;;;21.40;57.60;;;;;;4930487;28;20110;-82
2021/06/24 12:05:55;;;;;;;2.63;2.10;;;21.40;57.70;;;;;;4959251;28;20058;-83
2021/06/24 12:08:25;;;;;;;2.47;2.00;;;21.40;57.70;;;;;;4975326;28;20491;-83
2021/06/24 12:11:06;;;;;;;3.03;2.30;;;21.50;57.70;;;;;;4975169;28;20034;-83
2021/06/24 12:13:34;;;;;;;2.15;1.80;;;21.50;57.70;;;;;;4959405;28;20256;-83
2021/06/24 12:16:00;;;;;;;2.67;2.00;;;21.50;57.70;;;;;;4992109;28;20471;-83
2021/06/24 12:18:44;;;;;;;2.05;1.85;;;21.50;57.70;;;;;;4959587;28;20038;-83
2021/06/24 12:21:11;;;;;;;2.70;2.00;;;21.50;57.80;;;;;;4967343;28;20035;-84
2021/06/24 12:23:42;;;;;;;2.25;1.88;;;21.50;57.60;;;;;;4959924;28;20022;-83
2021/06/24 12:26:09;;;;;;;2.33;1.85;;;21.50;57.60;;;;;;4960330;28;20039;-83
2021/06/24 12:28:35;;;;;;;3.13;2.17;;;21.50;57.60;;;;;;4943648;28;20403;-82
2021/06/24 12:31:01;;;;;;;2.88;2.10;;;21.60;57.60;;;;;;4957235;29;20050;-83
2021/06/24 12:33:29;;;;;;;2.78;2.13;;;21.60;57.60;;;;;;4973237;28;20082;-83
2021/06/24 12:35:55;;;;;;;2.85;2.28;;;21.60;57.60;;;;;;4959970;28;20045;-83
2021/06/24 12:38:26;;;;;;;3.67;2.20;;;21.60;57.60;;;;;;4962754;28;20049;-83
2021/06/24 12:40:56;;;;;;;3.40;2.33;;;21.60;57.60;;;;;;4988205;28;20026;-83
2021/06/24 12:43:28;;;;;;;3.40;2.40;;;21.60;57.60;;;;;;4962726;28;20549;-83
2021/06/24 12:45:56;;;;;;;2.60;2.30;;;21.60;57.60;;;;;;4972797;28;20023;-83
2021/06/24 12:48:24;;;;;;;2.30;1.95;;;21.60;57.60;;;;;;4947382;28;20065;-83
2021/06/24 12:50:50;;;;;;;3.25;2.33;;;21.70;57.70;;;;;;4978890;28;20525;-83
2021/06/24 12:53:16;;;;;;;2.83;2.20;;;21.60;57.60;;;;;;4968447;28;20122;-82
2021/06/24 12:55:50;;;;;;;3.08;2.38;;;21.60;57.60;;;;;;4927156;28;20113;-83
2021/06/24 12:58:22;;;;;;;2.63;2.20;;;21.70;57.70;;;;;;4959689;28;20468;-82
2021/06/24 13:01:10;;;;;;;3.05;2.33;;;21.70;57.70;;;;;;4961358;28;20476;-82
2021/06/24 13:03:41;;;;;;;2.90;2.10;;;21.70;57.80;;;;;;4982891;28;20030;-82
2021/06/24 13:06:10;;;;;;;3.40;2.28;;;21.80;57.80;;;;;;4959297;28;20022;-82
2021/06/24 13:08:35;;;;;;;3.10;2.42;;;21.80;57.70;;;;;;4958636;28;20038;-83
2021/06/24 13:11:16;;;;;;;3.10;2.30;;;21.80;57.70;;;;;;4942914;28;20038;-83
2021/06/24 13:13:42;;;;;;;4.03;2.42;;;21.80;57.80;;;;;;4975070;28;20038;-83